San Diego, California
Traffic Map
Current Weather Conditions
San Diego, California
Overcast
Overcast
66°
Feels Like: 66°
Wind Chill: 66° Ceiling: 1200
Heat Index: 66° Visibility: 10mi
Dew Point: 60° Wind: 0mph
Humidity: 81% Direction: ° ()
Pressure: 29.94in Gusts: 0mph
Raw Report DataKSAN 241651Z 00000KT 10SM OVC012 19/16 A2994 RMK AO2 SLP137 T01890156
Traffic Incident Summary
Active as of:
Severity:
Category:
InformationThere was an issue retrieving the traffic information for this location. Please try a different location or try again shortly.
Advertisements